createdAt,value
2023-05-15T00:02:15.254Z,86.78
2023-05-15T00:04:41.936Z,74.97
2023-05-15T00:07:08.787Z,75.18
2023-05-15T00:09:35.438Z,67.18
2023-05-15T00:12:02.758Z,67.18
2023-05-15T00:14:29.432Z,65.10
2023-05-15T00:16:56.154Z,74.32
2023-05-15T00:19:22.782Z,73.32
2023-05-15T00:21:49.442Z,74.45
2023-05-15T00:24:16.197Z,72.75
2023-05-15T00:26:43.195Z,88.32
2023-05-15T00:29:10.753Z,72.85
2023-05-15T00:31:38.978Z,72.22
2023-05-15T00:34:05.621Z,78.00
2023-05-15T00:36:32.344Z,75.25
2023-05-15T00:38:58.984Z,68.70
2023-05-15T00:41:26.905Z,70.50
2023-05-15T00:43:54.430Z,66.38
2023-05-15T00:46:22.243Z,68.60
2023-05-15T00:48:50.625Z,78.05
2023-05-15T00:51:17.895Z,76.32
2023-05-15T00:53:44.762Z,65.82
2023-05-15T00:56:12.670Z,72.40
2023-05-15T00:58:39.576Z,66.05
2023-05-15T01:01:08.311Z,73.78
2023-05-15T01:03:36.689Z,106.72
2023-05-15T01:06:03.696Z,76.05
2023-05-15T01:08:33.301Z,74.22
2023-05-15T01:11:00.430Z,69.28
2023-05-15T01:13:27.067Z,59.92
2023-05-15T01:15:55.789Z,81.55
2023-05-15T01:18:22.482Z,94.80
2023-05-15T01:21:27.976Z,65.68
2023-05-15T01:24:09.894Z,65.07
2023-05-15T01:26:48.488Z,71.32
2023-05-15T01:29:30.967Z,66.85
2023-05-15T01:32:02.534Z,52.78
2023-05-15T01:34:39.703Z,59.60
2023-05-15T01:37:07.431Z,61.35
2023-05-15T01:39:35.925Z,50.97
2023-05-15T01:42:10.309Z,89.82
2023-05-15T01:44:40.529Z,55.75
2023-05-15T01:47:10.868Z,61.70
2023-05-15T01:49:38.520Z,68.43
2023-05-15T01:52:13.728Z,54.17
2023-05-15T01:54:42.128Z,50.35
2023-05-15T01:57:09.846Z,84.80
2023-05-15T01:59:37.380Z,71.88
2023-05-15T02:02:07.559Z,59.60
2023-05-15T02:04:34.400Z,58.90
2023-05-15T02:07:04.790Z,52.10
2023-05-15T02:09:32.369Z,106.72
2023-05-15T02:12:01.434Z,133.75
2023-05-15T02:14:29.155Z,77.45
2023-05-15T02:16:55.828Z,84.70
2023-05-15T02:19:22.503Z,78.82
2023-05-15T02:21:49.210Z,74.43
2023-05-15T02:24:15.869Z,63.55
2023-05-15T02:26:54.782Z,90.75
2023-05-15T02:29:30.131Z,104.03
2023-05-15T02:32:06.582Z,115.45
2023-05-15T02:34:36.195Z,137.63
2023-05-15T02:37:04.815Z,104.20
2023-05-15T02:39:32.357Z,109.53
2023-05-15T02:41:59.917Z,55.50
2023-05-15T02:44:26.943Z,64.95
2023-05-15T02:46:54.271Z,72.20
2023-05-15T02:49:22.043Z,59.70
2023-05-15T02:51:48.628Z,70.03
2023-05-15T02:54:15.385Z,125.57
2023-05-15T02:56:42.012Z,61.67
2023-05-15T02:59:09.052Z,90.00
2023-05-15T03:01:35.717Z,81.03
2023-05-15T03:04:02.481Z,118.30
2023-05-15T03:06:29.156Z,65.47
2023-05-15T03:08:55.923Z,137.30
2023-05-15T03:11:22.537Z,63.75
2023-05-15T03:13:49.181Z,84.72
2023-05-15T03:16:15.925Z,145.43
2023-05-15T03:18:42.715Z,158.70
2023-05-15T03:21:09.435Z,83.32
2023-05-15T03:23:37.999Z,63.75
2023-05-15T03:26:04.915Z,78.15
2023-05-15T03:28:31.677Z,62.08
2023-05-15T03:30:58.347Z,62.42
2023-05-15T03:33:25.377Z,209.65
2023-05-15T03:35:52.504Z,62.33
2023-05-15T03:38:19.987Z,81.70
2023-05-15T03:40:48.360Z,90.35
2023-05-15T03:43:16.299Z,66.50
2023-05-15T03:45:42.894Z,92.80
2023-05-15T03:48:09.565Z,99.57
2023-05-15T03:50:36.275Z,85.97
2023-05-15T03:53:03.111Z,70.97
2023-05-15T03:55:29.726Z,62.90
2023-05-15T03:57:57.136Z,78.90
2023-05-15T04:00:24.041Z,110.35
2023-05-15T04:02:51.090Z,89.82
2023-05-15T04:05:19.770Z,81.63
2023-05-15T04:07:46.544Z,72.97
2023-05-15T04:10:13.205Z,56.63
2023-05-15T04:12:39.810Z,85.72
2023-05-15T04:15:19.380Z,69.82
2023-05-15T04:17:47.792Z,97.00
2023-05-15T04:20:15.820Z,53.17
2023-05-15T04:22:43.501Z,56.35
2023-05-15T04:25:11.332Z,67.53
2023-05-15T04:27:38.807Z,57.08
2023-05-15T04:30:06.424Z,53.40
2023-05-15T04:32:36.380Z,55.63
2023-05-15T04:35:10.651Z,62.38
2023-05-15T04:37:38.277Z,59.92
2023-05-15T04:40:07.053Z,60.42
2023-05-15T04:42:34.609Z,59.22
2023-05-15T04:45:01.529Z,63.42
2023-05-15T04:47:28.348Z,49.33
2023-05-15T04:49:54.978Z,60.28
2023-05-15T04:52:21.794Z,63.08
2023-05-15T04:54:50.915Z,66.22
2023-05-15T04:57:17.738Z,59.55
2023-05-15T04:59:44.308Z,57.75
2023-05-15T05:02:10.934Z,60.83
2023-05-15T05:04:37.547Z,63.00
2023-05-15T05:07:05.824Z,65.28
2023-05-15T05:09:32.477Z,71.18
2023-05-15T05:12:00.053Z,65.03
2023-05-15T05:14:26.888Z,65.03
2023-05-15T05:16:53.554Z,60.90
2023-05-15T05:19:20.183Z,54.78
2023-05-15T05:21:47.040Z,59.72
2023-05-15T05:24:13.692Z,59.67
2023-05-15T05:26:43.168Z,53.88
2023-05-15T05:29:09.779Z,56.17
2023-05-15T05:31:36.501Z,52.78
2023-05-15T05:34:03.130Z,57.40
2023-05-15T05:36:29.756Z,57.15
2023-05-15T05:38:56.340Z,48.95
2023-05-15T05:41:23.271Z,49.03
2023-05-15T05:43:49.958Z,54.92
2023-05-15T05:46:16.584Z,53.45
2023-05-15T05:48:43.372Z,46.20
2023-05-15T05:51:09.990Z,57.40
2023-05-15T05:53:37.619Z,53.53
2023-05-15T05:56:05.791Z,57.22
2023-05-15T05:58:32.467Z,52.25
2023-05-15T06:00:59.113Z,53.63
2023-05-15T06:03:25.966Z,48.63
2023-05-15T06:05:53.685Z,44.30
2023-05-15T06:08:20.667Z,47.15
2023-05-15T06:10:47.309Z,46.15
2023-05-15T06:13:15.098Z,42.92
2023-05-15T06:15:42.122Z,37.70
2023-05-15T06:18:08.919Z,45.05
2023-05-15T06:20:35.702Z,39.83
2023-05-15T06:23:02.339Z,32.38
2023-05-15T06:25:29.043Z,37.00
2023-05-15T06:27:55.843Z,36.97
2023-05-15T06:30:23.029Z,42.25
2023-05-15T06:32:49.946Z,35.92
2023-05-15T06:35:16.761Z,35.78
2023-05-15T06:37:43.594Z,34.40
2023-05-15T06:40:10.833Z,33.17
2023-05-15T06:42:37.616Z,36.67
2023-05-15T06:45:04.720Z,36.85
2023-05-15T06:47:31.386Z,34.10
2023-05-15T06:49:58.107Z,37.83
2023-05-15T06:52:24.716Z,32.13
2023-05-15T06:54:52.200Z,35.53
2023-05-15T06:57:19.638Z,37.05
2023-05-15T06:59:46.468Z,34.95
2023-05-15T07:02:13.333Z,33.70
2023-05-15T07:04:40.027Z,36.08
2023-05-15T07:07:07.185Z,32.22
2023-05-15T07:09:34.406Z,30.70
2023-05-15T07:12:01.100Z,31.67
2023-05-15T07:14:27.783Z,28.98
2023-05-15T07:16:54.396Z,31.23
2023-05-15T07:19:21.604Z,30.13
2023-05-15T07:21:48.374Z,29.80
2023-05-15T07:24:15.042Z,32.53
2023-05-15T07:26:54.335Z,27.25
2023-05-15T07:29:25.321Z,26.10
2023-05-15T07:31:52.010Z,26.02
2023-05-15T07:34:18.698Z,27.83
2023-05-15T07:36:45.382Z,27.13
2023-05-15T07:39:12.307Z,29.75
2023-05-15T07:41:39.054Z,28.83
2023-05-15T07:44:06.093Z,25.38
2023-05-15T07:46:33.684Z,24.33
2023-05-15T07:49:00.561Z,29.05
2023-05-15T07:51:27.287Z,26.50
2023-05-15T07:53:54.281Z,27.98
2023-05-15T07:56:21.520Z,25.05
2023-05-15T07:58:48.717Z,24.08
2023-05-15T08:01:16.058Z,26.92
2023-05-15T08:03:42.816Z,23.08
2023-05-15T08:06:09.561Z,25.33
2023-05-15T08:08:36.179Z,24.20
2023-05-15T08:11:02.819Z,20.48
2023-05-15T08:13:29.508Z,22.48
2023-05-15T08:15:56.632Z,23.08
2023-05-15T08:18:23.396Z,21.60
2023-05-15T08:20:50.055Z,27.80
2023-05-15T08:23:16.670Z,22.65
2023-05-15T08:25:43.808Z,23.00
2023-05-15T08:28:11.101Z,21.15
2023-05-15T08:30:37.907Z,22.30
2023-05-15T08:33:05.004Z,21.00
2023-05-15T08:35:31.839Z,22.27
2023-05-15T08:37:59.344Z,20.48
2023-05-15T08:40:38.557Z,24.63
2023-05-15T08:43:15.160Z,23.50
2023-05-15T08:45:42.277Z,20.42
2023-05-15T08:48:11.820Z,21.15
2023-05-15T08:50:40.490Z,19.75
2023-05-15T08:53:08.050Z,18.85
2023-05-15T08:55:34.773Z,20.38
2023-05-15T08:58:01.516Z,18.55
2023-05-15T09:00:28.876Z,21.40
2023-05-15T09:02:55.661Z,24.08
2023-05-15T09:05:22.500Z,22.58
2023-05-15T09:07:49.338Z,20.65
2023-05-15T09:10:16.348Z,20.85
2023-05-15T09:12:44.534Z,24.20
2023-05-15T09:15:13.171Z,19.83
2023-05-15T09:17:40.690Z,21.70
2023-05-15T09:20:10.459Z,21.90
2023-05-15T09:22:37.282Z,22.73
2023-05-15T09:25:04.487Z,21.25
2023-05-15T09:27:41.129Z,20.33
2023-05-15T09:30:11.172Z,20.60
2023-05-15T09:32:38.157Z,22.42
2023-05-15T09:35:05.158Z,23.33
2023-05-15T09:37:33.809Z,18.20
2023-05-15T09:40:09.526Z,19.60
2023-05-15T09:42:36.754Z,19.05
2023-05-15T09:45:03.606Z,16.75
2023-05-15T09:47:30.478Z,18.40
2023-05-15T09:49:57.240Z,18.88
2023-05-15T09:52:23.924Z,18.35
2023-05-15T09:54:50.761Z,18.08
2023-05-15T09:57:21.720Z,15.90
2023-05-15T09:59:48.935Z,17.20
2023-05-15T10:02:25.089Z,15.82
2023-05-15T10:04:56.850Z,15.95
2023-05-15T10:07:29.480Z,14.68
2023-05-15T10:09:56.253Z,16.02
2023-05-15T10:12:23.903Z,15.68
2023-05-15T10:14:51.622Z,14.15
2023-05-15T10:17:20.468Z,11.43
2023-05-15T10:22:26.474Z,14.20
2023-05-15T10:25:00.873Z,16.13
2023-05-15T10:27:27.831Z,15.73
2023-05-15T10:29:54.912Z,15.32
2023-05-15T10:32:22.236Z,15.63
2023-05-15T10:34:49.558Z,12.70
2023-05-15T10:37:16.601Z,12.50
2023-05-15T10:39:44.169Z,13.88
2023-05-15T10:42:11.858Z,14.18
2023-05-15T10:44:38.464Z,17.13
2023-05-15T10:47:06.065Z,14.68
2023-05-15T10:49:32.793Z,15.10
2023-05-15T10:52:00.587Z,15.10
2023-05-15T10:54:28.384Z,16.45
2023-05-15T10:56:58.412Z,18.05
2023-05-15T10:59:32.554Z,18.13
2023-05-15T11:02:20.435Z,15.25
2023-05-15T11:04:47.913Z,14.30
2023-05-15T11:07:16.486Z,13.18
2023-05-15T11:09:43.178Z,13.02
2023-05-15T11:12:12.881Z,12.57
2023-05-15T11:14:41.843Z,16.88
2023-05-15T11:17:10.538Z,18.15
2023-05-15T11:19:48.960Z,15.38
2023-05-15T11:22:19.823Z,16.70
2023-05-15T11:24:59.406Z,16.20
2023-05-15T11:27:38.484Z,17.52
2023-05-15T11:30:22.857Z,17.38
2023-05-15T11:32:57.423Z,15.10
2023-05-15T11:35:27.831Z,19.10
2023-05-15T11:38:00.613Z,15.93
2023-05-15T11:40:31.851Z,15.93
2023-05-15T11:43:04.150Z,16.42
2023-05-15T11:45:33.440Z,22.52
2023-05-15T11:48:01.307Z,16.02
2023-05-15T11:50:28.605Z,15.50
2023-05-15T11:52:55.714Z,13.32
2023-05-15T11:55:23.499Z,13.32
2023-05-15T11:57:50.107Z,13.10
2023-05-15T12:00:17.002Z,16.77
2023-05-15T12:02:43.772Z,12.25
2023-05-15T12:05:10.964Z,11.02
2023-05-15T12:07:39.132Z,10.93
2023-05-15T12:10:06.770Z,11.93
2023-05-15T12:12:36.279Z,12.73
2023-05-15T12:15:03.069Z,12.45
2023-05-15T12:17:32.062Z,12.50
2023-05-15T12:19:59.919Z,10.70
2023-05-15T12:22:26.585Z,12.50
2023-05-15T12:24:53.207Z,14.88
2023-05-15T12:27:19.948Z,12.80
2023-05-15T12:29:46.755Z,12.18
2023-05-15T12:32:13.480Z,10.57
2023-05-15T12:34:40.956Z,14.00
2023-05-15T12:37:12.717Z,11.45
2023-05-15T12:39:52.386Z,10.07
2023-05-15T12:42:19.092Z,10.85
2023-05-15T12:44:45.715Z,9.35
2023-05-15T12:47:15.853Z,8.70
2023-05-15T12:49:42.893Z,8.40
2023-05-15T12:52:10.561Z,8.13
2023-05-15T12:54:43.609Z,10.23
2023-05-15T12:57:11.613Z,10.95
2023-05-15T12:59:39.843Z,14.68
2023-05-15T13:02:14.005Z,13.38
2023-05-15T13:04:40.845Z,15.95
2023-05-15T13:07:07.555Z,11.30
2023-05-15T13:09:35.410Z,12.38
2023-05-15T13:12:03.723Z,13.05
2023-05-15T13:14:34.302Z,13.05
2023-05-15T13:17:02.904Z,13.00
2023-05-15T13:19:29.824Z,10.20
2023-05-15T13:21:57.337Z,10.60
2023-05-15T13:24:23.950Z,10.88
2023-05-15T13:26:52.202Z,8.20
2023-05-15T13:29:19.130Z,11.15
2023-05-15T13:31:46.690Z,8.70
2023-05-15T13:34:13.552Z,8.57
2023-05-15T13:36:40.134Z,10.07
2023-05-15T13:39:06.727Z,11.13
2023-05-15T13:41:33.422Z,10.50
2023-05-15T13:44:00.428Z,9.00
2023-05-15T13:46:27.410Z,8.60
2023-05-15T13:48:54.031Z,10.60
2023-05-15T13:51:20.688Z,10.45
2023-05-15T13:53:47.495Z,12.32
2023-05-15T13:56:14.193Z,13.13
2023-05-15T13:58:41.190Z,9.77
2023-05-15T14:01:07.978Z,9.35
2023-05-15T14:03:34.880Z,10.75
2023-05-15T14:06:01.630Z,11.02
2023-05-15T14:08:28.246Z,12.75
2023-05-15T14:10:54.894Z,15.00
2023-05-15T14:13:21.681Z,13.32
2023-05-15T14:15:48.314Z,9.75
2023-05-15T14:18:15.121Z,12.05
2023-05-15T14:20:41.803Z,10.27
2023-05-15T14:23:08.477Z,9.77
2023-05-15T14:25:35.093Z,9.80
2023-05-15T14:28:01.719Z,11.57
2023-05-15T14:30:28.365Z,11.57
2023-05-15T14:32:54.990Z,7.55
2023-05-15T14:35:21.922Z,10.65
2023-05-15T14:37:48.485Z,12.55
2023-05-15T14:40:15.251Z,8.52
2023-05-15T14:42:41.914Z,12.27
2023-05-15T14:45:09.200Z,10.48
2023-05-15T14:47:35.860Z,8.93
2023-05-15T14:50:02.615Z,12.32
2023-05-15T14:52:29.236Z,10.73
2023-05-15T14:55:07.798Z,10.65
2023-05-15T14:57:35.853Z,8.30
2023-05-15T15:00:02.745Z,9.68
2023-05-15T15:02:29.543Z,11.75
2023-05-15T15:04:56.248Z,11.50
2023-05-15T15:07:22.963Z,10.10
2023-05-15T15:09:49.589Z,17.30
2023-05-15T15:12:16.251Z,11.40
2023-05-15T15:14:42.829Z,11.32
2023-05-15T15:17:09.506Z,10.00
2023-05-15T15:19:36.143Z,9.52
2023-05-15T15:22:02.828Z,11.02
2023-05-15T15:24:29.541Z,13.13
2023-05-15T15:26:56.357Z,10.93
2023-05-15T15:29:23.013Z,12.13
2023-05-15T15:31:49.831Z,11.05
2023-05-15T15:34:16.635Z,13.15
2023-05-15T15:36:43.746Z,12.75
2023-05-15T15:39:13.201Z,14.35
2023-05-15T15:41:39.934Z,12.52
2023-05-15T15:44:06.657Z,15.80
2023-05-15T15:46:33.335Z,13.30
2023-05-15T15:49:00.276Z,12.80
2023-05-15T15:51:26.923Z,18.15
2023-05-15T15:53:53.716Z,16.25
2023-05-15T15:56:21.270Z,14.32
2023-05-15T15:58:47.924Z,10.93
2023-05-15T16:01:14.754Z,14.75
2023-05-15T16:03:41.576Z,11.45
2023-05-15T16:06:08.361Z,9.45
2023-05-15T16:08:34.967Z,10.82
2023-05-15T16:11:01.726Z,10.75
2023-05-15T16:13:28.337Z,13.02
2023-05-15T16:15:54.945Z,10.57
2023-05-15T16:18:21.670Z,10.32
2023-05-15T16:20:48.501Z,12.38
2023-05-15T16:23:16.235Z,10.18
2023-05-15T16:25:47.221Z,12.57
2023-05-15T16:28:14.251Z,10.27
2023-05-15T16:30:48.861Z,8.38
2023-05-15T16:33:18.032Z,9.77
2023-05-15T16:35:44.999Z,10.25
2023-05-15T16:38:12.242Z,8.20
2023-05-15T16:40:39.178Z,13.32
2023-05-15T16:43:06.240Z,10.82
2023-05-15T16:45:32.941Z,11.07
2023-05-15T16:47:59.675Z,13.90
2023-05-15T16:50:26.731Z,10.38
2023-05-15T16:52:53.637Z,10.20
2023-05-15T16:55:20.430Z,10.02
2023-05-15T16:57:47.271Z,9.35
2023-05-15T17:00:15.087Z,9.23
2023-05-15T17:02:42.239Z,13.05
2023-05-15T17:05:10.217Z,11.10
2023-05-15T17:07:37.563Z,11.43
2023-05-15T17:10:05.264Z,13.13
2023-05-15T17:12:31.956Z,13.45
2023-05-15T17:14:58.661Z,11.30
2023-05-15T17:17:25.827Z,13.48
2023-05-15T17:19:53.089Z,15.57
2023-05-15T17:22:20.470Z,13.20
2023-05-15T17:24:50.635Z,16.25
2023-05-15T17:27:19.134Z,15.65
2023-05-15T17:29:46.014Z,12.50
2023-05-15T17:32:13.120Z,11.73
2023-05-15T17:34:39.844Z,14.52
2023-05-15T17:37:07.973Z,10.35
2023-05-15T17:39:35.075Z,18.25
2023-05-15T17:42:03.233Z,9.73
2023-05-15T17:44:31.319Z,9.43
2023-05-15T17:46:58.525Z,13.02
2023-05-15T17:49:26.198Z,11.27
2023-05-15T17:51:53.394Z,11.65
2023-05-15T17:54:20.117Z,12.32
2023-05-15T17:56:46.756Z,12.18
2023-05-15T17:59:13.408Z,10.80
2023-05-15T18:01:40.028Z,12.98
2023-05-15T18:04:06.722Z,14.77
2023-05-15T18:06:36.281Z,16.02
2023-05-15T18:09:03.271Z,16.13
2023-05-15T18:11:29.873Z,16.70
2023-05-15T18:13:56.640Z,13.82
2023-05-15T18:16:23.432Z,14.55
2023-05-15T18:18:52.051Z,15.60
2023-05-15T18:21:18.903Z,16.42
2023-05-15T18:23:45.715Z,18.20
2023-05-15T18:26:12.434Z,16.02
2023-05-15T18:28:39.084Z,13.93
2023-05-15T18:31:06.015Z,14.13
2023-05-15T18:33:33.369Z,14.27
2023-05-15T18:35:59.963Z,14.40
2023-05-15T18:38:26.606Z,14.85
2023-05-15T18:40:53.293Z,16.95
2023-05-15T18:43:19.950Z,14.65
2023-05-15T18:45:46.689Z,12.98
2023-05-15T18:48:13.310Z,14.30
2023-05-15T18:50:40.025Z,13.40
2023-05-15T18:53:07.068Z,12.43
2023-05-15T18:55:33.804Z,13.25
2023-05-15T18:58:00.569Z,10.82
2023-05-15T19:03:00.703Z,18.70
2023-05-15T19:05:27.697Z,11.07
2023-05-15T19:07:54.474Z,10.88
2023-05-15T19:10:21.150Z,13.57
2023-05-15T19:12:47.893Z,9.88
2023-05-15T19:15:15.787Z,11.75
2023-05-15T19:17:42.421Z,11.95
2023-05-15T19:20:09.524Z,13.52
2023-05-15T19:22:36.198Z,10.32
2023-05-15T19:25:02.855Z,10.35
2023-05-15T19:27:29.869Z,9.98
2023-05-15T19:29:57.446Z,7.97
2023-05-15T19:32:24.489Z,7.50
2023-05-15T19:34:51.995Z,9.43
2023-05-15T19:37:18.619Z,9.80
2023-05-15T19:39:45.300Z,7.97
2023-05-15T19:42:11.884Z,8.02
2023-05-15T19:44:38.505Z,6.85
2023-05-15T19:47:05.122Z,10.70
2023-05-15T19:49:31.804Z,12.07
2023-05-15T19:51:58.387Z,10.88
2023-05-15T19:54:25.030Z,9.45
2023-05-15T19:56:51.631Z,6.55
2023-05-15T19:59:18.263Z,5.18
2023-05-15T20:01:44.902Z,5.50
2023-05-15T20:04:13.628Z,6.13
2023-05-15T20:06:40.284Z,6.60
2023-05-15T20:09:06.904Z,7.68
2023-05-15T20:11:33.541Z,4.68
2023-05-15T20:14:00.620Z,8.10
2023-05-15T20:16:27.312Z,5.82
2023-05-15T20:18:55.323Z,6.28
2023-05-15T20:21:22.110Z,3.58
2023-05-15T20:23:49.351Z,6.05
2023-05-15T20:26:16.060Z,3.88
2023-05-15T20:28:45.183Z,4.45
2023-05-15T20:31:12.174Z,2.20
2023-05-15T20:33:38.925Z,2.75
2023-05-15T20:36:06.072Z,3.53
2023-05-15T20:38:33.876Z,5.50
2023-05-15T20:41:00.510Z,2.90
2023-05-15T20:43:27.119Z,2.53
2023-05-15T20:45:53.793Z,4.00
2023-05-15T20:48:20.541Z,7.25
2023-05-15T20:50:47.253Z,6.00
2023-05-15T20:53:13.882Z,5.07
2023-05-15T20:55:40.759Z,5.63
2023-05-15T20:58:07.733Z,6.15
2023-05-15T21:00:34.423Z,6.18
2023-05-15T21:03:01.141Z,4.72
2023-05-15T21:05:27.897Z,6.90
2023-05-15T21:07:54.467Z,3.35
2023-05-15T21:10:21.046Z,3.35
2023-05-15T21:12:47.751Z,5.43
2023-05-15T21:15:14.331Z,5.68
2023-05-15T21:17:41.018Z,5.22
2023-05-15T21:20:08.331Z,5.10
2023-05-15T21:22:35.044Z,4.20
2023-05-15T21:25:01.720Z,3.38
2023-05-15T21:27:28.329Z,4.47
2023-05-15T21:29:54.904Z,6.00
2023-05-15T21:32:23.314Z,7.63
2023-05-15T21:34:49.993Z,3.97
2023-05-15T21:37:16.731Z,7.03
2023-05-15T21:39:43.398Z,8.23
2023-05-15T21:42:10.096Z,5.78
2023-05-15T21:44:36.850Z,5.00
2023-05-15T21:47:03.616Z,9.82
2023-05-15T21:49:30.285Z,7.68
2023-05-15T21:51:56.912Z,8.60
2023-05-15T21:54:23.516Z,6.97
2023-05-15T21:56:51.726Z,10.00
2023-05-15T21:59:18.357Z,10.20
2023-05-15T22:01:45.138Z,10.20
2023-05-15T22:04:11.828Z,7.13
2023-05-15T22:06:38.507Z,11.57
2023-05-15T22:09:05.159Z,13.10
2023-05-15T22:11:31.817Z,10.88
2023-05-15T22:13:58.384Z,16.27
2023-05-15T22:16:43.440Z,10.35
2023-05-15T22:19:13.692Z,11.32
2023-05-15T22:21:48.452Z,12.13
2023-05-15T22:24:15.266Z,12.70
2023-05-15T22:26:42.163Z,11.52
2023-05-15T22:29:08.925Z,10.07
2023-05-15T22:31:35.577Z,9.38
2023-05-15T22:34:02.260Z,14.10
2023-05-15T22:36:28.909Z,18.13
2023-05-15T22:38:55.589Z,17.77
2023-05-15T22:41:22.229Z,10.45
2023-05-15T22:43:48.851Z,20.15
2023-05-15T22:46:16.265Z,15.68
2023-05-15T22:48:42.997Z,15.27
2023-05-15T22:51:10.379Z,10.95
2023-05-15T22:53:36.951Z,14.70
2023-05-15T22:56:03.572Z,14.90
2023-05-15T22:58:30.323Z,10.20
2023-05-15T23:00:57.028Z,14.25
2023-05-15T23:03:23.757Z,13.93
2023-05-15T23:05:53.100Z,12.25
2023-05-15T23:08:38.623Z,14.18
2023-05-15T23:11:05.270Z,17.75
2023-05-15T23:13:32.051Z,13.02
2023-05-15T23:15:58.765Z,19.33
2023-05-15T23:18:25.374Z,16.80
2023-05-15T23:20:52.334Z,20.08
2023-05-15T23:23:19.543Z,12.68
2023-05-15T23:25:46.318Z,16.30
2023-05-15T23:28:12.881Z,14.95
2023-05-15T23:30:39.476Z,14.63
2023-05-15T23:33:06.545Z,13.57
2023-05-15T23:35:33.274Z,21.08
2023-05-15T23:37:59.901Z,21.02
2023-05-15T23:40:26.935Z,15.65
2023-05-15T23:42:53.774Z,23.90
2023-05-15T23:45:20.374Z,20.25
2023-05-15T23:47:47.053Z,18.00
2023-05-15T23:50:13.660Z,22.05
2023-05-15T23:52:40.293Z,17.15
2023-05-15T23:55:07.749Z,23.27
2023-05-15T23:57:34.395Z,19.08
